createdAt,value
2019-03-15T00:00:12.860Z,31.60
2019-03-15T00:01:12.838Z,31.70
2019-03-15T00:02:12.813Z,31.90
2019-03-15T00:03:12.791Z,32.10
2019-03-15T00:04:12.768Z,31.20
2019-03-15T00:05:12.746Z,31.00
2019-03-15T00:06:12.726Z,30.10
2019-03-15T00:07:12.699Z,31.60
2019-03-15T00:08:12.688Z,31.70
2019-03-15T00:09:12.656Z,30.40
2019-03-15T00:10:12.634Z,31.90
2019-03-15T00:11:12.608Z,31.90
2019-03-15T00:12:12.589Z,30.90
2019-03-15T00:13:12.621Z,30.70
2019-03-15T00:14:12.545Z,30.20
2019-03-15T00:15:12.592Z,30.80
2019-03-15T00:16:12.498Z,31.40
2019-03-15T00:17:12.476Z,30.50
2019-03-15T00:18:12.461Z,30.00
2019-03-15T00:19:12.765Z,29.80
2019-03-15T00:20:12.410Z,31.70
2019-03-15T00:21:12.388Z,31.30
2019-03-15T00:22:12.362Z,31.50
2019-03-15T00:23:12.339Z,30.30
2019-03-15T00:24:12.318Z,31.20
2019-03-15T00:25:12.296Z,30.60
2019-03-15T00:26:12.276Z,31.40
2019-03-15T00:27:12.253Z,30.50
2019-03-15T00:28:12.234Z,30.90
2019-03-15T00:29:12.209Z,31.30
2019-03-15T00:30:12.186Z,31.30
2019-03-15T00:31:12.159Z,31.00
2019-03-15T00:32:12.140Z,30.60
2019-03-15T00:33:12.118Z,30.50
2019-03-15T00:34:12.093Z,30.70
2019-03-15T00:35:12.070Z,29.90
2019-03-15T00:36:12.053Z,29.90
2019-03-15T00:37:12.028Z,29.80
2019-03-15T00:38:12.005Z,30.00
2019-03-15T00:39:11.977Z,29.60
2019-03-15T00:40:11.956Z,29.80
2019-03-15T00:41:11.940Z,30.40
2019-03-15T00:42:11.913Z,31.10
2019-03-15T00:43:11.891Z,30.50
2019-03-15T00:44:11.870Z,31.00
2019-03-15T00:45:11.843Z,30.60
2019-03-15T00:46:11.819Z,30.30
2019-03-15T00:47:11.800Z,29.90
2019-03-15T00:48:11.779Z,29.50
2019-03-15T00:49:11.752Z,29.00
2019-03-15T00:50:12.769Z,30.00
2019-03-15T00:51:11.708Z,30.30
2019-03-15T00:52:11.685Z,29.80
2019-03-15T00:53:11.666Z,29.90
2019-03-15T00:54:11.644Z,30.10
2019-03-15T00:55:11.623Z,30.30
2019-03-15T00:56:11.870Z,30.00
2019-03-15T00:57:11.573Z,31.00
2019-03-15T00:58:11.552Z,29.90
2019-03-15T00:59:11.530Z,30.50
2019-03-15T01:00:11.503Z,31.50
2019-03-15T01:01:11.490Z,30.60
2019-03-15T01:02:11.547Z,30.20
2019-03-15T01:03:11.448Z,29.90
2019-03-15T01:04:11.425Z,29.50
2019-03-15T01:05:11.391Z,31.20
2019-03-15T01:06:11.381Z,30.10
2019-03-15T01:07:11.351Z,31.00
2019-03-15T01:08:11.525Z,31.10
2019-03-15T01:09:11.305Z,30.20
2019-03-15T01:10:11.292Z,31.10
2019-03-15T01:11:11.261Z,30.50
2019-03-15T01:12:11.287Z,30.80
2019-03-15T01:13:11.212Z,31.00
2019-03-15T01:14:11.193Z,30.50
2019-03-15T01:15:11.167Z,30.70
2019-03-15T01:16:11.144Z,31.20
2019-03-15T01:17:11.125Z,31.40
2019-03-15T01:18:11.101Z,30.90
2019-03-15T01:19:11.133Z,30.80
2019-03-15T01:20:11.055Z,29.60
2019-03-15T01:21:11.049Z,30.50
2019-03-15T01:22:11.011Z,30.30
2019-03-15T01:23:10.989Z,30.90
2019-03-15T01:24:10.965Z,30.20
2019-03-15T01:25:10.944Z,31.50
2019-03-15T01:26:10.918Z,29.90
2019-03-15T01:27:10.899Z,30.10
2019-03-15T01:28:10.873Z,30.50
2019-03-15T01:29:10.853Z,30.50
2019-03-15T01:30:10.857Z,29.50
2019-03-15T01:31:10.805Z,29.90
2019-03-15T01:32:10.792Z,29.80
2019-03-15T01:33:10.766Z,30.70
2019-03-15T01:34:10.739Z,29.90
2019-03-15T01:35:10.724Z,30.10
2019-03-15T01:36:10.695Z,29.90
2019-03-15T01:37:10.674Z,30.50
2019-03-15T01:38:10.652Z,29.90
2019-03-15T01:39:10.628Z,29.50
2019-03-15T01:40:10.606Z,30.20
2019-03-15T01:41:10.583Z,29.50
2019-03-15T01:42:10.572Z,29.50
2019-03-15T01:43:10.539Z,29.50
2019-03-15T01:44:10.516Z,29.30
2019-03-15T01:45:10.491Z,29.70
2019-03-15T01:46:10.470Z,29.10
2019-03-15T01:47:10.450Z,29.50
2019-03-15T01:48:10.474Z,28.60
2019-03-15T01:49:10.401Z,27.90
2019-03-15T01:50:10.383Z,29.50
2019-03-15T01:51:10.353Z,29.70
2019-03-15T01:52:10.334Z,28.90
2019-03-15T01:53:10.314Z,29.70
2019-03-15T01:54:10.288Z,29.40
2019-03-15T01:55:10.272Z,29.80
2019-03-15T01:56:10.245Z,29.00
2019-03-15T01:57:10.224Z,29.00
2019-03-15T01:58:10.205Z,27.60
2019-03-15T01:59:10.182Z,27.80
2019-03-15T02:00:10.198Z,26.90
2019-03-15T02:01:10.131Z,28.40
2019-03-15T02:02:10.108Z,26.80
2019-03-15T02:03:10.086Z,28.80
2019-03-15T02:04:10.067Z,28.70
2019-03-15T02:05:10.046Z,29.30
2019-03-15T02:06:10.019Z,28.90
2019-03-15T02:07:10.008Z,28.40
2019-03-15T02:08:09.973Z,29.00
2019-03-15T02:09:10.064Z,28.40
2019-03-15T02:10:10.985Z,28.70
2019-03-15T02:11:09.908Z,28.50
2019-03-15T02:12:09.882Z,28.70
2019-03-15T02:13:09.862Z,28.30
2019-03-15T02:14:09.844Z,28.60
2019-03-15T02:15:10.459Z,28.60
2019-03-15T02:16:09.795Z,28.80
2019-03-15T02:17:09.772Z,29.20
2019-03-15T02:18:09.746Z,28.80
2019-03-15T02:19:10.323Z,29.40
2019-03-15T02:20:09.702Z,28.30
2019-03-15T02:21:09.682Z,29.10
2019-03-15T02:22:09.657Z,29.40
2019-03-15T02:23:09.633Z,29.30
2019-03-15T02:24:09.615Z,28.80
2019-03-15T02:25:09.589Z,29.50
2019-03-15T02:26:09.571Z,28.90
2019-03-15T02:27:09.548Z,29.00
2019-03-15T02:28:09.524Z,29.60
2019-03-15T02:29:09.502Z,29.10
2019-03-15T02:30:09.475Z,30.70
2019-03-15T02:31:09.454Z,29.30
2019-03-15T02:32:09.446Z,29.00
2019-03-15T02:33:09.410Z,28.50
2019-03-15T02:34:09.391Z,28.70
2019-03-15T02:35:09.375Z,28.90
2019-03-15T02:36:09.342Z,28.00
2019-03-15T02:37:09.323Z,28.80
2019-03-15T02:38:09.298Z,28.70
2019-03-15T02:39:09.273Z,28.60
2019-03-15T02:40:09.268Z,27.80
2019-03-15T02:41:09.230Z,28.00
2019-03-15T02:42:09.211Z,28.30
2019-03-15T02:43:09.184Z,27.80
2019-03-15T02:44:09.162Z,27.50
2019-03-15T02:45:09.142Z,26.90
2019-03-15T02:46:09.127Z,27.80
2019-03-15T02:47:09.095Z,27.30
2019-03-15T02:48:09.078Z,26.60
2019-03-15T02:49:09.056Z,26.70
2019-03-15T02:50:09.032Z,27.90
2019-03-15T02:51:09.007Z,27.90
2019-03-15T02:52:08.992Z,27.50
2019-03-15T02:53:09.294Z,27.90
2019-03-15T02:54:08.955Z,27.90
2019-03-15T02:55:08.923Z,28.10
2019-03-15T02:56:08.902Z,28.10
2019-03-15T02:57:09.022Z,27.90
2019-03-15T02:58:08.847Z,27.40
2019-03-15T02:59:08.829Z,27.80
2019-03-15T03:00:08.805Z,28.80
2019-03-15T03:01:08.778Z,29.20
2019-03-15T03:02:08.771Z,28.90
2019-03-15T03:03:08.736Z,28.20
2019-03-15T03:04:08.718Z,28.30
2019-03-15T03:05:08.692Z,27.80
2019-03-15T03:06:08.669Z,28.00
2019-03-15T03:07:08.650Z,28.30
2019-03-15T03:08:08.621Z,28.10
2019-03-15T03:09:08.659Z,28.20
2019-03-15T03:10:08.580Z,28.10
2019-03-15T03:11:08.556Z,28.00
2019-03-15T03:12:08.527Z,28.10
2019-03-15T03:13:08.511Z,28.60
2019-03-15T03:14:08.494Z,28.90
2019-03-15T03:15:08.468Z,28.40
2019-03-15T03:16:08.442Z,29.80
2019-03-15T03:17:08.425Z,29.80
2019-03-15T03:18:08.402Z,30.30
2019-03-15T03:19:08.380Z,29.50
2019-03-15T03:20:08.373Z,30.30
2019-03-15T03:21:08.332Z,29.70
2019-03-15T03:22:09.110Z,30.30
2019-03-15T03:23:08.289Z,29.40
2019-03-15T03:24:08.267Z,30.00
2019-03-15T03:25:08.241Z,30.40
2019-03-15T03:26:08.219Z,30.00
2019-03-15T03:27:08.205Z,31.30
2019-03-15T03:28:08.195Z,30.10
2019-03-15T03:29:08.157Z,30.40
2019-03-15T03:30:08.147Z,29.90
2019-03-15T03:31:08.108Z,29.00
2019-03-15T03:32:08.086Z,29.50
2019-03-15T03:33:08.065Z,28.70
2019-03-15T03:34:08.597Z,30.90
2019-03-15T03:35:09.532Z,30.90
2019-03-15T03:36:07.994Z,31.10
2019-03-15T03:37:07.973Z,30.50
2019-03-15T03:38:07.956Z,30.70
2019-03-15T03:39:07.925Z,31.40
2019-03-15T03:40:07.902Z,31.20
2019-03-15T03:41:07.883Z,29.70
2019-03-15T03:42:07.863Z,30.00
2019-03-15T03:43:07.841Z,29.30
2019-03-15T03:44:07.822Z,28.90
2019-03-15T03:45:07.790Z,29.20
2019-03-15T03:46:07.782Z,30.20
2019-03-15T03:47:07.750Z,29.00
2019-03-15T03:48:08.513Z,28.40
2019-03-15T03:49:07.704Z,28.40
2019-03-15T03:50:07.678Z,29.00
2019-03-15T03:51:08.651Z,29.20
2019-03-15T03:52:07.640Z,29.60
2019-03-15T03:53:07.610Z,29.00
2019-03-15T03:54:07.587Z,29.10
2019-03-15T03:55:07.567Z,28.80
2019-03-15T03:56:07.542Z,28.40
2019-03-15T03:57:07.520Z,28.00
2019-03-15T03:58:07.501Z,28.80
2019-03-15T03:59:07.478Z,28.80
2019-03-15T04:00:07.458Z,27.80
2019-03-15T04:01:07.795Z,26.90
2019-03-15T04:02:07.409Z,26.00
2019-03-15T04:03:07.389Z,27.20
2019-03-15T04:04:07.359Z,26.60
2019-03-15T04:05:07.339Z,26.60
2019-03-15T04:06:07.319Z,27.00
2019-03-15T04:07:07.297Z,26.20
2019-03-15T04:08:07.269Z,26.00
2019-03-15T04:09:07.251Z,27.30
2019-03-15T04:10:07.227Z,25.60
2019-03-15T04:11:07.206Z,26.10
2019-03-15T04:12:07.179Z,25.60
2019-03-15T04:13:07.171Z,25.90
2019-03-15T04:14:07.140Z,26.00
2019-03-15T04:15:07.113Z,26.30
2019-03-15T04:16:07.151Z,26.50
2019-03-15T04:17:07.070Z,26.40
2019-03-15T04:18:07.042Z,26.40
2019-03-15T04:19:07.026Z,25.90
2019-03-15T04:20:06.996Z,26.40
2019-03-15T04:21:06.978Z,26.30
2019-03-15T04:22:06.958Z,26.70
2019-03-15T04:23:06.935Z,27.00
2019-03-15T04:24:06.911Z,27.10
2019-03-15T04:25:07.329Z,26.30
2019-03-15T04:26:06.863Z,27.10
2019-03-15T04:27:07.055Z,26.60
2019-03-15T04:28:06.820Z,27.30
2019-03-15T04:29:06.891Z,27.60
2019-03-15T04:30:08.797Z,28.00
2019-03-15T04:31:06.750Z,28.00
2019-03-15T04:32:06.921Z,29.20
2019-03-15T04:33:06.710Z,29.40
2019-03-15T04:34:06.686Z,28.70
2019-03-15T04:35:06.666Z,28.70
2019-03-15T04:36:06.642Z,28.70
2019-03-15T04:37:09.180Z,28.20
2019-03-15T04:38:06.590Z,29.10
2019-03-15T04:39:06.579Z,28.80
2019-03-15T04:40:06.553Z,28.70
2019-03-15T04:41:06.527Z,28.80
2019-03-15T04:42:06.505Z,28.30
2019-03-15T04:43:06.476Z,27.80
2019-03-15T04:44:06.458Z,28.40
2019-03-15T04:45:06.436Z,28.60
2019-03-15T04:46:06.413Z,29.10
2019-03-15T04:47:06.396Z,27.50
2019-03-15T04:48:06.365Z,27.40
2019-03-15T04:49:06.348Z,27.60
2019-03-15T04:50:06.322Z,28.10
2019-03-15T04:51:06.301Z,27.50
2019-03-15T04:52:06.276Z,27.20
2019-03-15T04:53:06.258Z,27.60
2019-03-15T04:54:06.229Z,26.60
2019-03-15T04:55:06.215Z,25.80
2019-03-15T04:56:06.185Z,25.80
2019-03-15T04:57:06.163Z,25.60
2019-03-15T04:58:06.147Z,24.30
2019-03-15T04:59:06.119Z,26.60
2019-03-15T05:00:06.096Z,25.70
2019-03-15T05:01:06.072Z,24.70
2019-03-15T05:02:06.048Z,24.60
2019-03-15T05:03:06.026Z,25.50
2019-03-15T05:04:06.002Z,25.10
2019-03-15T05:05:06.016Z,25.10
2019-03-15T05:06:05.960Z,25.30
2019-03-15T05:07:05.941Z,25.50
2019-03-15T05:08:05.922Z,24.70
2019-03-15T05:09:05.893Z,24.90
2019-03-15T05:10:05.876Z,25.10
2019-03-15T05:11:05.844Z,25.90
2019-03-15T05:12:05.823Z,23.80
2019-03-15T05:13:05.806Z,23.70
2019-03-15T05:14:05.783Z,23.80
2019-03-15T05:15:05.752Z,23.30
2019-03-15T05:16:05.740Z,22.60
2019-03-15T05:17:05.715Z,22.80
2019-03-15T05:18:05.695Z,21.70
2019-03-15T05:19:05.666Z,21.80
2019-03-15T05:20:05.643Z,21.50
2019-03-15T05:21:05.620Z,22.40
2019-03-15T05:22:05.596Z,23.20
2019-03-15T05:23:05.591Z,24.20
2019-03-15T05:24:05.555Z,25.00
2019-03-15T05:25:05.531Z,23.70
2019-03-15T05:26:05.508Z,23.20
2019-03-15T05:27:05.487Z,23.40
2019-03-15T05:28:05.464Z,23.20
2019-03-15T05:29:05.441Z,22.50
2019-03-15T05:30:05.416Z,21.90
2019-03-15T05:31:05.395Z,22.70
2019-03-15T05:32:05.376Z,22.80
2019-03-15T05:33:05.349Z,23.40
2019-03-15T05:34:05.337Z,22.80
2019-03-15T05:35:05.305Z,21.70
2019-03-15T05:36:05.281Z,22.30
2019-03-15T05:37:05.267Z,21.50
2019-03-15T05:38:05.233Z,21.80
2019-03-15T05:39:05.207Z,22.20
2019-03-15T05:40:05.197Z,21.30
2019-03-15T05:41:05.168Z,22.00
2019-03-15T05:42:05.143Z,21.50
2019-03-15T05:43:05.122Z,20.80
2019-03-15T05:44:05.103Z,21.30
2019-03-15T05:45:05.086Z,21.60
2019-03-15T05:46:05.056Z,21.30
2019-03-15T05:47:05.039Z,20.90
2019-03-15T05:48:05.012Z,20.80
2019-03-15T05:49:04.985Z,22.10
2019-03-15T05:50:04.963Z,21.30
2019-03-15T05:51:04.937Z,19.30
2019-03-15T05:52:04.919Z,21.60
2019-03-15T05:53:04.900Z,20.50
2019-03-15T05:54:04.874Z,20.50
2019-03-15T05:55:04.854Z,19.80
2019-03-15T05:56:04.826Z,19.40
2019-03-15T05:57:04.805Z,19.90
2019-03-15T05:58:04.784Z,20.00
2019-03-15T05:59:04.764Z,20.10
2019-03-15T06:00:04.735Z,18.90
2019-03-15T06:01:04.714Z,18.70
2019-03-15T06:02:04.694Z,19.20
2019-03-15T06:03:04.670Z,19.50
2019-03-15T06:04:04.651Z,18.60
2019-03-15T06:05:04.663Z,19.10
2019-03-15T06:06:04.606Z,17.80
2019-03-15T06:07:04.580Z,18.90
2019-03-15T06:08:04.565Z,18.60
2019-03-15T06:09:04.537Z,19.00
2019-03-15T06:10:04.515Z,18.70
2019-03-15T06:11:04.519Z,19.30
2019-03-15T06:12:04.471Z,20.20
2019-03-15T06:13:04.444Z,20.80
2019-03-15T06:14:04.427Z,21.50
2019-03-15T06:15:04.402Z,21.50
2019-03-15T06:16:04.377Z,21.80
2019-03-15T06:17:04.353Z,21.80
2019-03-15T06:18:06.746Z,21.70
2019-03-15T06:19:04.313Z,22.00
2019-03-15T06:20:06.394Z,23.00
2019-03-15T06:21:04.263Z,21.50
2019-03-15T06:22:04.241Z,22.00
2019-03-15T06:23:04.222Z,22.70
2019-03-15T06:24:04.195Z,22.00
2019-03-15T06:25:04.179Z,21.70
2019-03-15T06:26:04.153Z,21.90
2019-03-15T06:27:04.132Z,21.10
2019-03-15T06:28:04.106Z,20.80
2019-03-15T06:29:04.087Z,21.40
2019-03-15T06:30:04.067Z,21.10
2019-03-15T06:31:04.045Z,20.80
2019-03-15T06:32:04.020Z,21.50
2019-03-15T06:33:04.005Z,19.40
2019-03-15T06:34:03.974Z,18.70
2019-03-15T06:35:03.951Z,18.10
2019-03-15T06:36:04.009Z,18.20
2019-03-15T06:37:03.909Z,19.10
2019-03-15T06:38:03.883Z,19.10
2019-03-15T06:39:03.858Z,19.10
2019-03-15T06:40:03.833Z,19.20
2019-03-15T06:41:03.819Z,18.50
2019-03-15T06:42:03.791Z,19.70
2019-03-15T06:43:03.770Z,19.60
2019-03-15T06:44:03.746Z,19.80
2019-03-15T06:45:03.723Z,20.00
2019-03-15T06:46:03.705Z,19.00
2019-03-15T06:47:03.684Z,19.40
2019-03-15T06:48:03.657Z,18.90
2019-03-15T06:49:03.636Z,17.90
2019-03-15T06:50:03.616Z,18.00
2019-03-15T06:51:03.591Z,18.60
2019-03-15T06:52:03.571Z,18.10
2019-03-15T06:53:03.545Z,18.60
2019-03-15T06:54:11.322Z,18.00
2019-03-15T06:55:05.275Z,17.70
2019-03-15T06:56:03.485Z,17.80
2019-03-15T06:57:03.458Z,17.70
2019-03-15T06:58:03.432Z,17.50
2019-03-15T06:59:03.412Z,18.20
2019-03-15T07:00:03.917Z,18.10
2019-03-15T07:01:03.366Z,17.70
2019-03-15T07:02:03.344Z,17.50
2019-03-15T07:03:03.320Z,17.20
2019-03-15T07:04:03.301Z,17.90
2019-03-15T07:05:03.280Z,17.10
2019-03-15T07:06:03.257Z,17.80
2019-03-15T07:07:03.234Z,18.20
2019-03-15T07:08:03.218Z,17.50
2019-03-15T07:09:03.189Z,17.30
2019-03-15T07:10:03.166Z,18.30
2019-03-15T07:11:03.151Z,18.40
2019-03-15T07:12:09.354Z,18.00
2019-03-15T07:13:03.107Z,17.80
2019-03-15T07:14:03.076Z,17.80
2019-03-15T07:15:03.054Z,17.80
2019-03-15T07:16:03.038Z,18.20
2019-03-15T07:17:03.014Z,17.90
2019-03-15T07:18:02.988Z,17.30
2019-03-15T07:19:03.251Z,18.80
2019-03-15T07:20:02.952Z,16.90
2019-03-15T07:21:02.920Z,17.20
2019-03-15T07:22:02.901Z,17.70
2019-03-15T07:23:02.881Z,18.20
2019-03-15T07:24:02.858Z,17.60
2019-03-15T07:25:02.838Z,17.30
2019-03-15T07:26:02.811Z,17.90
2019-03-15T07:27:12.713Z,17.30
2019-03-15T07:28:02.768Z,18.40
2019-03-15T07:29:02.746Z,18.30
2019-03-15T07:30:02.726Z,17.60
2019-03-15T07:31:02.701Z,18.10
2019-03-15T07:32:02.674Z,17.00
2019-03-15T07:33:02.655Z,17.20
2019-03-15T07:34:02.638Z,17.60
2019-03-15T07:35:02.610Z,16.90
2019-03-15T07:36:02.592Z,16.80
2019-03-15T07:37:02.570Z,17.00
2019-03-15T07:38:02.545Z,16.50
2019-03-15T07:39:02.528Z,16.70
2019-03-15T07:40:02.506Z,16.50
2019-03-15T07:41:02.480Z,16.30
2019-03-15T07:42:02.460Z,16.20
2019-03-15T07:43:05.117Z,16.00
2019-03-15T07:44:02.410Z,15.50
2019-03-15T07:45:02.400Z,16.00
2019-03-15T07:46:02.371Z,16.30
2019-03-15T07:47:02.346Z,15.40
2019-03-15T07:48:02.335Z,15.60
2019-03-15T07:49:02.318Z,16.40
2019-03-15T07:50:02.281Z,15.80
2019-03-15T07:51:02.261Z,15.40
2019-03-15T07:52:03.999Z,16.50
2019-03-15T07:53:02.227Z,15.40
2019-03-15T07:54:02.196Z,16.10
2019-03-15T07:55:02.184Z,15.40
2019-03-15T07:56:02.157Z,15.60
2019-03-15T07:57:02.135Z,15.90
2019-03-15T07:58:02.105Z,15.30
2019-03-15T07:59:02.088Z,15.60
2019-03-15T08:00:02.067Z,14.90
2019-03-15T08:01:02.064Z,15.00
2019-03-15T08:02:54.561Z,15.50
2019-03-15T08:03:54.535Z,15.50
2019-03-15T08:04:54.513Z,15.40
2019-03-15T08:05:54.493Z,15.90
2019-03-15T08:06:54.470Z,15.50
2019-03-15T08:07:54.449Z,14.80
2019-03-15T08:08:54.427Z,14.90
2019-03-15T08:09:54.409Z,14.50
2019-03-15T08:10:55.156Z,14.80
2019-03-15T08:11:54.361Z,15.00
2019-03-15T08:12:54.343Z,13.80
2019-03-15T08:13:54.321Z,13.90
2019-03-15T08:14:54.307Z,14.30
2019-03-15T08:15:54.277Z,13.50
2019-03-15T08:16:54.259Z,13.80
2019-03-15T08:17:54.231Z,15.80
2019-03-15T08:18:54.213Z,14.60
2019-03-15T08:19:54.194Z,12.90
2019-03-15T08:20:54.172Z,13.10
2019-03-15T08:21:56.586Z,12.80
2019-03-15T08:22:54.125Z,12.30
2019-03-15T08:23:54.105Z,13.10
2019-03-15T08:24:54.083Z,12.10
2019-03-15T08:25:54.068Z,11.90
2019-03-15T08:26:54.045Z,12.20
2019-03-15T08:27:54.022Z,12.20
2019-03-15T08:28:53.997Z,11.40
2019-03-15T08:29:53.979Z,12.60
2019-03-15T08:30:53.957Z,12.60
2019-03-15T08:31:53.937Z,12.90
2019-03-15T08:32:53.919Z,13.00
2019-03-15T08:33:53.899Z,12.30
2019-03-15T08:34:53.876Z,11.80
2019-03-15T08:35:53.867Z,12.70
2019-03-15T08:36:53.838Z,12.50
2019-03-15T08:37:53.809Z,12.10
2019-03-15T08:38:53.787Z,12.60
2019-03-15T08:39:53.768Z,12.20
2019-03-15T08:40:53.745Z,12.80
2019-03-15T08:41:53.729Z,14.40
2019-03-15T08:42:53.718Z,13.80
2019-03-15T08:43:53.683Z,12.30
2019-03-15T08:44:53.663Z,13.30
2019-03-15T08:45:53.637Z,14.30
2019-03-15T08:46:53.629Z,12.90
2019-03-15T08:47:53.593Z,13.70
2019-03-15T08:48:53.578Z,13.30
2019-03-15T08:49:53.555Z,12.90
2019-03-15T08:50:53.534Z,14.30
2019-03-15T08:52:03.367Z,12.50
2019-03-15T08:52:54.220Z,13.20
2019-03-15T08:53:53.535Z,13.80
2019-03-15T08:55:04.571Z,13.70
2019-03-15T08:55:53.435Z,15.80
2019-03-15T08:56:53.414Z,15.20
2019-03-15T08:57:53.396Z,13.30
2019-03-15T08:58:53.373Z,14.00
2019-03-15T08:59:57.433Z,14.90
2019-03-15T09:00:53.330Z,15.40
2019-03-15T09:01:53.318Z,12.60
2019-03-15T09:02:53.292Z,12.30
2019-03-15T09:03:53.272Z,13.60
2019-03-15T09:04:53.256Z,13.70
2019-03-15T09:05:53.235Z,13.20
2019-03-15T09:06:53.208Z,13.50
2019-03-15T09:07:53.185Z,12.30
2019-03-15T09:08:53.167Z,12.70
2019-03-15T09:09:53.152Z,12.00
2019-03-15T09:10:53.131Z,12.30
2019-03-15T09:11:53.106Z,13.20
2019-03-15T09:12:53.088Z,12.30
2019-03-15T09:13:53.066Z,12.90
2019-03-15T09:14:53.050Z,13.50
2019-03-15T09:15:53.027Z,13.20
2019-03-15T09:16:53.008Z,13.10
2019-03-15T09:17:52.990Z,13.00
2019-03-15T09:18:55.492Z,12.60
2019-03-15T09:19:52.944Z,13.30
2019-03-15T09:20:52.925Z,13.20
2019-03-15T09:21:52.906Z,12.70
2019-03-15T09:22:52.891Z,12.90
2019-03-15T09:23:52.863Z,13.10
2019-03-15T09:24:52.842Z,13.20
2019-03-15T09:25:52.820Z,13.10
2019-03-15T09:26:52.803Z,12.50
2019-03-15T09:27:52.779Z,12.60
2019-03-15T09:28:52.764Z,13.00
2019-03-15T09:29:52.739Z,13.10
2019-03-15T09:30:52.723Z,12.50
2019-03-15T09:32:04.865Z,12.80
2019-03-15T09:32:52.685Z,12.80
2019-03-15T09:33:52.660Z,12.70
2019-03-15T09:34:55.634Z,12.70
2019-03-15T09:35:52.615Z,13.00
2019-03-15T09:36:52.597Z,12.50
2019-03-15T09:37:52.576Z,12.20
2019-03-15T09:38:52.556Z,12.00
2019-03-15T09:39:52.535Z,12.50
2019-03-15T09:40:52.521Z,12.70
2019-03-15T09:41:52.495Z,14.80
2019-03-15T09:42:52.472Z,15.10
2019-03-15T09:43:52.456Z,14.50
2019-03-15T09:44:52.436Z,13.80
2019-03-15T09:45:55.287Z,13.80
2019-03-15T09:46:52.392Z,13.90
2019-03-15T09:47:52.374Z,14.60
2019-03-15T09:48:52.354Z,15.10
2019-03-15T09:49:52.337Z,14.10
2019-03-15T09:50:52.317Z,14.00
2019-03-15T09:51:52.301Z,14.90
2019-03-15T09:52:52.280Z,14.80
2019-03-15T09:53:52.257Z,15.10
2019-03-15T09:54:52.231Z,14.60
2019-03-15T09:55:52.213Z,15.90
2019-03-15T09:56:52.192Z,13.30
2019-03-15T09:57:52.173Z,13.90
2019-03-15T09:58:52.156Z,15.30
2019-03-15T09:59:52.131Z,13.60
2019-03-15T10:00:52.113Z,13.60
2019-03-15T10:01:52.090Z,13.30
2019-03-15T10:02:52.072Z,13.20
2019-03-15T10:03:52.052Z,12.50
2019-03-15T10:04:52.032Z,12.60
2019-03-15T10:05:52.013Z,12.90
2019-03-15T10:06:51.989Z,12.80
2019-03-15T10:07:51.967Z,13.00
2019-03-15T10:08:51.953Z,13.00
2019-03-15T10:09:51.932Z,12.90
2019-03-15T10:10:51.909Z,13.60
2019-03-15T10:11:51.897Z,13.50
2019-03-15T10:13:04.725Z,13.00
2019-03-15T10:13:51.852Z,13.40
2019-03-15T10:14:51.835Z,12.70
2019-03-15T10:15:55.399Z,13.40
2019-03-15T10:16:51.786Z,13.40
2019-03-15T10:17:51.775Z,13.00
2019-03-15T10:18:51.749Z,13.70
2019-03-15T10:19:51.725Z,13.60
2019-03-15T10:20:51.709Z,13.10
2019-03-15T10:21:51.686Z,13.10
2019-03-15T10:23:05.567Z,13.20
2019-03-15T10:23:51.646Z,13.00
2019-03-15T10:24:51.625Z,12.50
2019-03-15T10:25:51.655Z,13.60
2019-03-15T10:26:51.586Z,13.50
2019-03-15T10:27:51.570Z,13.60
2019-03-15T10:28:51.545Z,13.40
2019-03-15T10:29:51.525Z,13.10
2019-03-15T10:30:51.505Z,13.50
2019-03-15T10:31:51.490Z,18.40
2019-03-15T10:32:51.465Z,13.40
2019-03-15T10:33:51.449Z,13.40
2019-03-15T10:34:51.426Z,12.40
2019-03-15T10:35:51.411Z,13.10
2019-03-15T10:36:51.382Z,12.70
2019-03-15T10:37:51.363Z,11.90
2019-03-15T10:38:51.340Z,12.20
2019-03-15T10:39:51.329Z,12.70
2019-03-15T10:40:51.312Z,12.30
2019-03-15T10:41:51.284Z,12.70
2019-03-15T10:42:51.268Z,11.80
2019-03-15T10:43:51.254Z,11.80
2019-03-15T10:44:51.223Z,12.20
2019-03-15T10:45:51.204Z,11.90
2019-03-15T10:46:51.191Z,12.00
2019-03-15T10:47:51.166Z,11.70
2019-03-15T10:48:51.144Z,12.50
2019-03-15T10:49:51.127Z,12.40
2019-03-15T10:50:51.105Z,12.40
2019-03-15T10:51:51.087Z,13.70
2019-03-15T10:52:53.641Z,13.00
2019-03-15T10:53:51.041Z,13.60
2019-03-15T10:54:51.031Z,13.40
2019-03-15T10:56:00.030Z,12.80
2019-03-15T10:56:50.985Z,13.40
2019-03-15T10:57:50.969Z,13.40
2019-03-15T10:58:50.945Z,13.00
2019-03-15T10:59:50.929Z,13.10
2019-03-15T11:00:50.907Z,12.60
2019-03-15T11:01:50.898Z,12.60
2019-03-15T11:02:50.873Z,12.30
2019-03-15T11:03:50.849Z,12.90
2019-03-15T11:04:50.831Z,12.90
2019-03-15T11:05:50.810Z,13.20
2019-03-15T11:06:50.789Z,13.40
2019-03-15T11:07:50.773Z,13.20
2019-03-15T11:08:50.759Z,13.70
2019-03-15T11:09:50.741Z,13.20
2019-03-15T11:10:50.715Z,13.30
2019-03-15T11:11:50.691Z,13.10
2019-03-15T11:12:50.680Z,13.10
2019-03-15T11:13:50.671Z,13.60
2019-03-15T11:14:50.635Z,12.80
2019-03-15T11:15:50.617Z,13.00
2019-03-15T11:16:50.595Z,13.20
2019-03-15T11:17:50.586Z,12.50
2019-03-15T11:18:50.561Z,13.00
2019-03-15T11:19:50.537Z,13.00
2019-03-15T11:20:50.517Z,13.00
2019-03-15T11:21:50.498Z,12.70
2019-03-15T11:22:50.491Z,13.10
2019-03-15T11:23:50.463Z,12.90
2019-03-15T11:24:50.440Z,13.10
2019-03-15T11:25:50.419Z,12.60
2019-03-15T11:26:50.399Z,13.00
2019-03-15T11:27:50.384Z,12.90
2019-03-15T11:28:50.362Z,13.00
2019-03-15T11:29:50.346Z,12.90
2019-03-15T11:30:50.323Z,13.30
2019-03-15T11:31:50.305Z,12.90
2019-03-15T11:32:50.288Z,13.30
2019-03-15T11:33:50.271Z,13.80
2019-03-15T11:34:50.250Z,12.90
2019-03-15T11:35:50.229Z,13.70
2019-03-15T11:36:58.338Z,13.30
2019-03-15T11:37:50.186Z,12.90
2019-03-15T11:38:50.176Z,13.40
2019-03-15T11:39:50.148Z,12.90
2019-03-15T11:40:50.133Z,12.60
2019-03-15T11:41:50.121Z,12.90
2019-03-15T11:42:50.103Z,13.10
2019-03-15T11:43:50.074Z,12.60
2019-03-15T11:44:50.059Z,12.90
2019-03-15T11:45:50.043Z,13.00
2019-03-15T11:46:50.092Z,12.30
2019-03-15T11:48:02.629Z,12.60
2019-03-15T11:48:49.983Z,13.30
2019-03-15T11:49:49.968Z,13.80
2019-03-15T11:50:49.942Z,13.20
2019-03-15T11:51:49.926Z,12.60
2019-03-15T11:52:49.911Z,13.20
2019-03-15T11:53:49.889Z,14.30
2019-03-15T11:54:50.051Z,13.00
2019-03-15T11:55:49.866Z,12.50
2019-03-15T11:56:50.883Z,12.40
2019-03-15T11:57:49.822Z,12.60
2019-03-15T11:58:49.800Z,13.20
2019-03-15T11:59:49.787Z,12.90
2019-03-15T12:00:49.766Z,13.30
2019-03-15T12:02:03.110Z,13.50
2019-03-15T12:02:49.730Z,12.80
2019-03-15T12:03:53.391Z,13.20
2019-03-15T12:04:49.688Z,12.70
2019-03-15T12:05:49.669Z,12.90
2019-03-15T12:06:49.649Z,13.30
2019-03-15T12:07:49.644Z,13.50
2019-03-15T12:08:49.612Z,13.50
2019-03-15T12:09:49.595Z,13.30
2019-03-15T12:10:49.578Z,13.20
2019-03-15T12:11:49.563Z,13.60
2019-03-15T12:12:49.538Z,12.90
2019-03-15T12:13:49.528Z,13.30
2019-03-15T12:14:49.509Z,12.90
2019-03-15T12:15:49.483Z,13.40
2019-03-15T12:16:49.468Z,13.40
2019-03-15T12:17:49.448Z,13.30
2019-03-15T12:18:49.430Z,13.30
2019-03-15T12:19:49.410Z,13.70
2019-03-15T12:20:49.614Z,13.10
2019-03-15T12:21:49.376Z,14.00
2019-03-15T12:22:49.354Z,13.40
2019-03-15T12:23:49.340Z,13.60
2019-03-15T12:24:49.319Z,13.70
2019-03-15T12:25:49.298Z,13.30
2019-03-15T12:26:49.284Z,13.80
2019-03-15T12:27:49.272Z,13.50
2019-03-15T12:28:49.244Z,14.10
2019-03-15T12:29:49.224Z,13.20
2019-03-15T12:30:49.207Z,13.30
2019-03-15T12:31:49.187Z,13.40
2019-03-15T12:32:49.174Z,12.80
2019-03-15T12:33:49.153Z,13.00
2019-03-15T12:34:49.133Z,12.80
2019-03-15T12:35:49.116Z,13.10
2019-03-15T12:36:49.097Z,13.20
2019-03-15T12:37:49.074Z,13.40
2019-03-15T12:38:49.055Z,13.10
2019-03-15T12:39:49.038Z,12.70
2019-03-15T12:40:49.022Z,13.80
2019-03-15T12:41:49.002Z,13.10
2019-03-15T12:42:48.979Z,14.00
2019-03-15T12:43:48.961Z,13.40
2019-03-15T12:44:49.019Z,13.40
2019-03-15T12:45:48.926Z,13.10
2019-03-15T12:46:48.908Z,12.50
2019-03-15T12:47:48.891Z,13.30
2019-03-15T12:48:48.869Z,13.40
2019-03-15T12:49:48.850Z,13.50
2019-03-15T12:50:48.846Z,13.30
2019-03-15T12:51:48.807Z,13.20
2019-03-15T12:52:49.116Z,13.80